sensor_id;sensor_type;location;lat;lon;timestamp;temperature;humidity
77100;SHT31;66602;48.922;2.414;2023-03-01T00:01:46;-1.05;65.55
77100;SHT31;66602;48.922;2.414;2023-03-01T00:04:12;-1.09;65.78
77100;SHT31;66602;48.922;2.414;2023-03-01T00:06:38;-1.09;65.70
77100;SHT31;66602;48.922;2.414;2023-03-01T00:09:03;-1.17;66.48
77100;SHT31;66602;48.922;2.414;2023-03-01T00:11:30;-1.09;66.22
77100;SHT31;66602;48.922;2.414;2023-03-01T00:13:58;-1.02;66.02
77100;SHT31;66602;48.922;2.414;2023-03-01T00:16:27;-1.02;65.86
77100;SHT31;66602;48.922;2.414;2023-03-01T00:18:54;-0.93;65.88
77100;SHT31;66602;48.922;2.414;2023-03-01T00:21:21;-0.96;65.91
77100;SHT31;66602;48.922;2.414;2023-03-01T00:23:47;-1.00;66.07
77100;SHT31;66602;48.922;2.414;2023-03-01T00:26:14;-0.93;66.13
77100;SHT31;66602;48.922;2.414;2023-03-01T00:28:42;-1.03;66.50
77100;SHT31;66602;48.922;2.414;2023-03-01T00:31:17;-1.06;66.34
77100;SHT31;66602;48.922;2.414;2023-03-01T00:33:43;-1.10;66.71
77100;SHT31;66602;48.922;2.414;2023-03-01T00:36:11;-1.07;66.88
77100;SHT31;66602;48.922;2.414;2023-03-01T00:38:38;-1.13;67.10
77100;SHT31;66602;48.922;2.414;2023-03-01T00:41:11;-1.12;67.28
77100;SHT31;66602;48.922;2.414;2023-03-01T00:43:37;-1.19;67.12
77100;SHT31;66602;48.922;2.414;2023-03-01T00:46:13;-1.20;67.50
77100;SHT31;66602;48.922;2.414;2023-03-01T00:48:40;-1.21;67.42
77100;SHT31;66602;48.922;2.414;2023-03-01T00:51:17;-1.20;67.49
77100;SHT31;66602;48.922;2.414;2023-03-01T00:53:44;-1.23;67.81
77100;SHT31;66602;48.922;2.414;2023-03-01T00:56:12;-1.33;67.91
77100;SHT31;66602;48.922;2.414;2023-03-01T00:58:38;-1.36;68.27
77100;SHT31;66602;48.922;2.414;2023-03-01T01:01:11;-1.29;68.00
77100;SHT31;66602;48.922;2.414;2023-03-01T01:03:49;-1.33;67.85
77100;SHT31;66602;48.922;2.414;2023-03-01T01:06:20;-1.32;68.08
77100;SHT31;66602;48.922;2.414;2023-03-01T01:08:46;-1.30;68.51
77100;SHT31;66602;48.922;2.414;2023-03-01T01:11:13;-1.25;68.26
77100;SHT31;66602;48.922;2.414;2023-03-01T01:13:39;-1.16;67.72
77100;SHT31;66602;48.922;2.414;2023-03-01T01:16:05;-1.16;67.32
77100;SHT31;66602;48.922;2.414;2023-03-01T01:18:31;-1.17;67.59
77100;SHT31;66602;48.922;2.414;2023-03-01T01:20:56;-1.16;67.51
77100;SHT31;66602;48.922;2.414;2023-03-01T01:23:22;-1.30;68.12
77100;SHT31;66602;48.922;2.414;2023-03-01T01:25:48;-1.42;68.43
77100;SHT31;66602;48.922;2.414;2023-03-01T01:28:13;-1.50;68.63
77100;SHT31;66602;48.922;2.414;2023-03-01T01:30:38;-1.64;69.13
77100;SHT31;66602;48.922;2.414;2023-03-01T01:33:04;-1.79;69.95
77100;SHT31;66602;48.922;2.414;2023-03-01T01:35:29;-1.81;70.10
77100;SHT31;66602;48.922;2.414;2023-03-01T01:37:55;-1.75;70.10
77100;SHT31;66602;48.922;2.414;2023-03-01T01:40:20;-1.72;70.03
77100;SHT31;66602;48.922;2.414;2023-03-01T01:42:46;-1.54;69.42
77100;SHT31;66602;48.922;2.414;2023-03-01T01:45:34;-1.58;69.51
77100;SHT31;66602;48.922;2.414;2023-03-01T01:48:05;-1.67;69.76
77100;SHT31;66602;48.922;2.414;2023-03-01T01:50:35;-1.75;70.32
77100;SHT31;66602;48.922;2.414;2023-03-01T01:53:08;-1.81;70.93
77100;SHT31;66602;48.922;2.414;2023-03-01T01:55:36;-1.75;70.65
77100;SHT31;66602;48.922;2.414;2023-03-01T01:58:04;-1.67;70.16
77100;SHT31;66602;48.922;2.414;2023-03-01T02:00:31;-1.63;70.06
77100;SHT31;66602;48.922;2.414;2023-03-01T02:03:03;-1.67;70.17
77100;SHT31;66602;48.922;2.414;2023-03-01T02:05:56;-1.74;70.48
77100;SHT31;66602;48.922;2.414;2023-03-01T02:08:27;-1.77;70.48
77100;SHT31;66602;48.922;2.414;2023-03-01T02:10:56;-1.81;70.68
77100;SHT31;66602;48.922;2.414;2023-03-01T02:13:23;-1.89;71.21
77100;SHT31;66602;48.922;2.414;2023-03-01T02:15:49;-1.85;71.26
77100;SHT31;66602;48.922;2.414;2023-03-01T02:18:17;-1.91;71.30
77100;SHT31;66602;48.922;2.414;2023-03-01T02:23:30;-2.01;71.56
77100;SHT31;66602;48.922;2.414;2023-03-01T02:26:07;-2.12;71.51
77100;SHT31;66602;48.922;2.414;2023-03-01T02:28:40;-2.10;72.25
77100;SHT31;66602;48.922;2.414;2023-03-01T02:31:07;-2.19;72.20
77100;SHT31;66602;48.922;2.414;2023-03-01T02:33:52;-2.22;72.90
77100;SHT31;66602;48.922;2.414;2023-03-01T02:36:29;-2.22;73.12
77100;SHT31;66602;48.922;2.414;2023-03-01T02:38:58;-2.01;72.14
77100;SHT31;66602;48.922;2.414;2023-03-01T02:41:26;-1.89;71.81
77100;SHT31;66602;48.922;2.414;2023-03-01T02:43:53;-2.01;72.06
77100;SHT31;66602;48.922;2.414;2023-03-01T02:46:21;-1.95;72.20
77100;SHT31;66602;48.922;2.414;2023-03-01T02:48:54;-1.86;71.70
77100;SHT31;66602;48.922;2.414;2023-03-01T02:56:43;-2.05;72.60
77100;SHT31;66602;48.922;2.414;2023-03-01T02:59:09;-2.13;72.64
77100;SHT31;66602;48.922;2.414;2023-03-01T03:01:37;-2.19;73.14
77100;SHT31;66602;48.922;2.414;2023-03-01T03:04:07;-2.21;73.68
77100;SHT31;66602;48.922;2.414;2023-03-01T03:06:33;-2.18;73.20
77100;SHT31;66602;48.922;2.414;2023-03-01T03:08:59;-2.26;73.90
77100;SHT31;66602;48.922;2.414;2023-03-01T03:11:25;-2.26;73.68
77100;SHT31;66602;48.922;2.414;2023-03-01T03:13:50;-2.25;73.58
77100;SHT31;66602;48.922;2.414;2023-03-01T03:16:17;-2.12;73.09
77100;SHT31;66602;48.922;2.414;2023-03-01T03:18:43;-2.18;72.98
77100;SHT31;66602;48.922;2.414;2023-03-01T03:21:11;-2.21;73.36
77100;SHT31;66602;48.922;2.414;2023-03-01T03:23:37;-2.25;73.80
77100;SHT31;66602;48.922;2.414;2023-03-01T03:26:04;-2.26;74.17
77100;SHT31;66602;48.922;2.414;2023-03-01T03:28:31;-2.19;73.73
77100;SHT31;66602;48.922;2.414;2023-03-01T03:30:56;-2.10;73.39
77100;SHT31;66602;48.922;2.414;2023-03-01T03:33:22;-2.15;73.17
77100;SHT31;66602;48.922;2.414;2023-03-01T03:35:48;-2.21;73.83
77100;SHT31;66602;48.922;2.414;2023-03-01T03:38:18;-2.25;74.04
77100;SHT31;66602;48.922;2.414;2023-03-01T03:40:59;-2.29;73.97
77100;SHT31;66602;48.922;2.414;2023-03-01T03:43:28;-2.42;73.99
77100;SHT31;66602;48.922;2.414;2023-03-01T03:45:55;-2.49;74.81
77100;SHT31;66602;48.922;2.414;2023-03-01T03:48:23;-2.50;75.22
77100;SHT31;66602;48.922;2.414;2023-03-01T03:50:52;-2.60;75.21
77100;SHT31;66602;48.922;2.414;2023-03-01T03:53:18;-2.64;75.59
77100;SHT31;66602;48.922;2.414;2023-03-01T03:55:44;-2.60;75.13
77100;SHT31;66602;48.922;2.414;2023-03-01T03:58:10;-2.58;75.41
77100;SHT31;66602;48.922;2.414;2023-03-01T04:00:41;-2.53;75.38
77100;SHT31;66602;48.922;2.414;2023-03-01T04:03:07;-2.50;75.44
77100;SHT31;66602;48.922;2.414;2023-03-01T04:05:36;-2.53;75.54
77100;SHT31;66602;48.922;2.414;2023-03-01T04:08:02;-2.56;75.38
77100;SHT31;66602;48.922;2.414;2023-03-01T04:10:34;-2.68;75.57
77100;SHT31;66602;48.922;2.414;2023-03-01T04:13:01;-2.70;75.42
77100;SHT31;66602;48.922;2.414;2023-03-01T04:15:27;-2.66;75.90
77100;SHT31;66602;48.922;2.414;2023-03-01T04:17:53;-2.77;76.24
77100;SHT31;66602;48.922;2.414;2023-03-01T04:20:22;-2.77;76.33
77100;SHT31;66602;48.922;2.414;2023-03-01T04:22:50;-2.74;76.11
77100;SHT31;66602;48.922;2.414;2023-03-01T04:25:16;-2.60;75.77
77100;SHT31;66602;48.922;2.414;2023-03-01T04:27:42;-2.71;75.86
77100;SHT31;66602;48.922;2.414;2023-03-01T04:30:08;-2.80;76.46
77100;SHT31;66602;48.922;2.414;2023-03-01T04:32:34;-2.80;76.40
77100;SHT31;66602;48.922;2.414;2023-03-01T04:35:00;-2.85;77.02
77100;SHT31;66602;48.922;2.414;2023-03-01T04:37:26;-2.76;77.35
77100;SHT31;66602;48.922;2.414;2023-03-01T04:39:52;-2.83;76.88
77100;SHT31;66602;48.922;2.414;2023-03-01T04:42:18;-2.87;77.37
77100;SHT31;66602;48.922;2.414;2023-03-01T04:44:44;-2.80;77.20
77100;SHT31;66602;48.922;2.414;2023-03-01T04:47:10;-2.81;77.11
77100;SHT31;66602;48.922;2.414;2023-03-01T04:49:36;-2.84;77.10
77100;SHT31;66602;48.922;2.414;2023-03-01T04:52:02;-2.97;77.52
77100;SHT31;66602;48.922;2.414;2023-03-01T04:54:31;-3.12;78.23
77100;SHT31;66602;48.922;2.414;2023-03-01T04:56:58;-3.19;78.52
77100;SHT31;66602;48.922;2.414;2023-03-01T04:59:24;-3.23;78.94
77100;SHT31;66602;48.922;2.414;2023-03-01T05:01:54;-3.31;78.66
77100;SHT31;66602;48.922;2.414;2023-03-01T05:04:21;-3.39;79.37
77100;SHT31;66602;48.922;2.414;2023-03-01T05:06:47;-3.32;79.61
77100;SHT31;66602;48.922;2.414;2023-03-01T05:09:12;-3.28;79.84
77100;SHT31;66602;48.922;2.414;2023-03-01T05:11:38;-3.15;79.51
77100;SHT31;66602;48.922;2.414;2023-03-01T05:14:04;-3.04;78.82
77100;SHT31;66602;48.922;2.414;2023-03-01T05:16:30;-3.01;78.45
77100;SHT31;66602;48.922;2.414;2023-03-01T05:18:57;-3.02;78.58
77100;SHT31;66602;48.922;2.414;2023-03-01T05:21:22;-3.01;78.43
77100;SHT31;66602;48.922;2.414;2023-03-01T05:23:48;-2.97;78.62
77100;SHT31;66602;48.922;2.414;2023-03-01T05:26:15;-2.98;78.58
77100;SHT31;66602;48.922;2.414;2023-03-01T05:28:40;-2.99;78.67
77100;SHT31;66602;48.922;2.414;2023-03-01T05:31:06;-2.94;78.88
77100;SHT31;66602;48.922;2.414;2023-03-01T05:33:38;-2.97;78.67
77100;SHT31;66602;48.922;2.414;2023-03-01T05:36:05;-2.98;78.46
77100;SHT31;66602;48.922;2.414;2023-03-01T05:38:31;-3.06;78.73
77100;SHT31;66602;48.922;2.414;2023-03-01T05:40:56;-3.02;79.39
77100;SHT31;66602;48.922;2.414;2023-03-01T05:43:22;-2.98;78.98
77100;SHT31;66602;48.922;2.414;2023-03-01T05:45:47;-3.01;79.01
77100;SHT31;66602;48.922;2.414;2023-03-01T05:48:13;-3.04;79.35
77100;SHT31;66602;48.922;2.414;2023-03-01T05:50:42;-3.04;79.41
77100;SHT31;66602;48.922;2.414;2023-03-01T05:53:18;-3.02;79.15
77100;SHT31;66602;48.922;2.414;2023-03-01T05:55:47;-2.99;79.28
77100;SHT31;66602;48.922;2.414;2023-03-01T05:58:18;-3.01;79.45
77100;SHT31;66602;48.922;2.414;2023-03-01T06:00:45;-3.02;79.58
77100;SHT31;66602;48.922;2.414;2023-03-01T06:03:13;-3.05;79.90
77100;SHT31;66602;48.922;2.414;2023-03-01T06:05:39;-3.02;80.08
77100;SHT31;66602;48.922;2.414;2023-03-01T06:08:05;-3.04;79.76
77100;SHT31;66602;48.922;2.414;2023-03-01T06:10:31;-3.09;80.26
77100;SHT31;66602;48.922;2.414;2023-03-01T06:12:57;-3.18;80.40
77100;SHT31;66602;48.922;2.414;2023-03-01T06:15:24;-3.23;80.87
77100;SHT31;66602;48.922;2.414;2023-03-01T06:17:50;-3.34;80.92
77100;SHT31;66602;48.922;2.414;2023-03-01T06:20:21;-3.43;81.33
77100;SHT31;66602;48.922;2.414;2023-03-01T06:22:48;-3.52;81.59
77100;SHT31;66602;48.922;2.414;2023-03-01T06:25:17;-3.45;82.09
77100;SHT31;66602;48.922;2.414;2023-03-01T06:27:43;-3.34;81.91
77100;SHT31;66602;48.922;2.414;2023-03-01T06:30:10;-3.23;82.09
77100;SHT31;66602;48.922;2.414;2023-03-01T06:32:37;-3.16;81.60
77100;SHT31;66602;48.922;2.414;2023-03-01T06:35:07;-2.97;80.90
77100;SHT31;66602;48.922;2.414;2023-03-01T06:37:33;-2.97;80.71
77100;SHT31;66602;48.922;2.414;2023-03-01T06:40:01;-2.95;80.48
77100;SHT31;66602;48.922;2.414;2023-03-01T06:42:37;-2.88;80.88
77100;SHT31;66602;48.922;2.414;2023-03-01T06:45:04;-2.74;79.80
77100;SHT31;66602;48.922;2.414;2023-03-01T06:47:30;-2.84;80.28
77100;SHT31;66602;48.922;2.414;2023-03-01T06:49:55;-2.84;80.24
77100;SHT31;66602;48.922;2.414;2023-03-01T06:52:21;-2.81;80.20
77100;SHT31;66602;48.922;2.414;2023-03-01T06:54:46;-2.64;79.75
77100;SHT31;66602;48.922;2.414;2023-03-01T06:57:12;-2.53;79.58
77100;SHT31;66602;48.922;2.414;2023-03-01T06:59:37;-2.52;79.27
77100;SHT31;66602;48.922;2.414;2023-03-01T07:02:03;-2.46;79.26
77100;SHT31;66602;48.922;2.414;2023-03-01T07:04:29;-2.47;79.31
77100;SHT31;66602;48.922;2.414;2023-03-01T07:06:56;-2.45;79.08
77100;SHT31;66602;48.922;2.414;2023-03-01T07:09:23;-2.40;78.80
77100;SHT31;66602;48.922;2.414;2023-03-01T07:11:48;-2.28;78.32
77100;SHT31;66602;48.922;2.414;2023-03-01T07:14:15;-2.22;78.05
77100;SHT31;66602;48.922;2.414;2023-03-01T07:16:41;-2.12;77.92
77100;SHT31;66602;48.922;2.414;2023-03-01T07:19:06;-1.99;77.42
77100;SHT31;66602;48.922;2.414;2023-03-01T07:21:33;-1.88;76.96
77100;SHT31;66602;48.922;2.414;2023-03-01T07:23:59;-1.71;76.63
77100;SHT31;66602;48.922;2.414;2023-03-01T07:26:25;-1.58;75.66
77100;SHT31;66602;48.922;2.414;2023-03-01T07:28:50;-1.19;74.95
77100;SHT31;66602;48.922;2.414;2023-03-01T07:31:16;-0.02;70.44
77100;SHT31;66602;48.922;2.414;2023-03-01T07:33:41;0.77;67.14
77100;SHT31;66602;48.922;2.414;2023-03-01T07:36:07;1.76;63.10
77100;SHT31;66602;48.922;2.414;2023-03-01T07:38:34;2.62;60.04
77100;SHT31;66602;48.922;2.414;2023-03-01T07:41:02;3.33;57.31
77100;SHT31;66602;48.922;2.414;2023-03-01T07:43:31;4.09;54.62
77100;SHT31;66602;48.922;2.414;2023-03-01T07:46:00;4.59;52.65
77100;SHT31;66602;48.922;2.414;2023-03-01T07:48:27;4.96;51.46
77100;SHT31;66602;48.922;2.414;2023-03-01T07:50:52;5.25;50.69
77100;SHT31;66602;48.922;2.414;2023-03-01T07:53:18;5.69;49.66
77100;SHT31;66602;48.922;2.414;2023-03-01T07:55:43;6.61;46.62
77100;SHT31;66602;48.922;2.414;2023-03-01T07:58:09;6.76;45.94
77100;SHT31;66602;48.922;2.414;2023-03-01T08:00:36;7.03;45.26
77100;SHT31;66602;48.922;2.414;2023-03-01T08:03:01;7.17;45.08
77100;SHT31;66602;48.922;2.414;2023-03-01T08:05:28;7.44;44.37
77100;SHT31;66602;48.922;2.414;2023-03-01T08:07:54;7.22;44.39
77100;SHT31;66602;48.922;2.414;2023-03-01T08:10:20;7.22;44.73
77100;SHT31;66602;48.922;2.414;2023-03-01T08:12:45;7.06;45.24
77100;SHT31;66602;48.922;2.414;2023-03-01T08:15:11;8.03;43.31
77100;SHT31;66602;48.922;2.414;2023-03-01T08:17:37;7.81;42.83
77100;SHT31;66602;48.922;2.414;2023-03-01T08:20:04;7.43;44.33
77100;SHT31;66602;48.922;2.414;2023-03-01T08:22:36;7.36;45.05
77100;SHT31;66602;48.922;2.414;2023-03-01T08:25:03;7.91;43.03
77100;SHT31;66602;48.922;2.414;2023-03-01T08:27:29;7.68;43.93
77100;SHT31;66602;48.922;2.414;2023-03-01T08:29:54;7.20;44.69
77100;SHT31;66602;48.922;2.414;2023-03-01T08:32:20;6.68;46.20
77100;SHT31;66602;48.922;2.414;2023-03-01T08:34:48;5.93;47.63
77100;SHT31;66602;48.922;2.414;2023-03-01T08:37:14;5.99;47.92
77100;SHT31;66602;48.922;2.414;2023-03-01T08:39:39;6.04;47.90
77100;SHT31;66602;48.922;2.414;2023-03-01T08:42:05;5.66;48.65
77100;SHT31;66602;48.922;2.414;2023-03-01T08:44:31;4.83;51.31
77100;SHT31;66602;48.922;2.414;2023-03-01T08:46:56;4.32;53.09
77100;SHT31;66602;48.922;2.414;2023-03-01T08:49:22;4.06;53.13
77100;SHT31;66602;48.922;2.414;2023-03-01T08:51:48;4.15;53.08
77100;SHT31;66602;48.922;2.414;2023-03-01T08:54:19;4.55;52.31
77100;SHT31;66602;48.922;2.414;2023-03-01T08:56:46;4.88;50.69
77100;SHT31;66602;48.922;2.414;2023-03-01T08:59:12;5.07;50.06
77100;SHT31;66602;48.922;2.414;2023-03-01T09:01:38;5.72;48.93
77100;SHT31;66602;48.922;2.414;2023-03-01T09:04:06;7.40;45.19
77100;SHT31;66602;48.922;2.414;2023-03-01T09:06:36;8.33;41.56
77100;SHT31;66602;48.922;2.414;2023-03-01T09:09:03;8.74;41.18
77100;SHT31;66602;48.922;2.414;2023-03-01T09:11:29;8.25;41.95
77100;SHT31;66602;48.922;2.414;2023-03-01T09:13:55;7.00;44.61
77100;SHT31;66602;48.922;2.414;2023-03-01T09:16:22;7.22;44.41
77100;SHT31;66602;48.922;2.414;2023-03-01T09:18:52;7.48;43.98
77100;SHT31;66602;48.922;2.414;2023-03-01T09:21:20;8.03;43.50
77100;SHT31;66602;48.922;2.414;2023-03-01T09:23:47;8.84;41.17
77100;SHT31;66602;48.922;2.414;2023-03-01T09:26:18;9.05;39.71
77100;SHT31;66602;48.922;2.414;2023-03-01T09:28:45;8.73;40.71
77100;SHT31;66602;48.922;2.414;2023-03-01T09:31:11;8.81;40.56
77100;SHT31;66602;48.922;2.414;2023-03-01T09:33:41;9.76;38.52
77100;SHT31;66602;48.922;2.414;2023-03-01T09:36:12;9.80;37.88
77100;SHT31;66602;48.922;2.414;2023-03-01T09:38:38;10.22;37.35
77100;SHT31;66602;48.922;2.414;2023-03-01T09:41:10;10.65;36.53
77100;SHT31;66602;48.922;2.414;2023-03-01T09:44:00;10.69;36.33
77100;SHT31;66602;48.922;2.414;2023-03-01T09:46:33;10.27;36.86
77100;SHT31;66602;48.922;2.414;2023-03-01T09:49:10;10.40;36.55
77100;SHT31;66602;48.922;2.414;2023-03-01T09:51:38;10.17;37.03
77100;SHT31;66602;48.922;2.414;2023-03-01T09:54:04;10.28;37.62
77100;SHT31;66602;48.922;2.414;2023-03-01T09:56:37;10.58;36.39
77100;SHT31;66602;48.922;2.414;2023-03-01T10:01:46;10.56;36.35
77100;SHT31;66602;48.922;2.414;2023-03-01T10:04:24;11.37;35.92
77100;SHT31;66602;48.922;2.414;2023-03-01T10:07:02;12.21;32.95
77100;SHT31;66602;48.922;2.414;2023-03-01T10:09:33;12.84;32.52
77100;SHT31;66602;48.922;2.414;2023-03-01T10:12:01;14.04;30.65
77100;SHT31;66602;48.922;2.414;2023-03-01T10:17:43;14.34;30.31
77100;SHT31;66602;48.922;2.414;2023-03-01T10:20:30;13.32;30.99
77100;SHT31;66602;48.922;2.414;2023-03-01T10:22:59;11.88;32.97
77100;SHT31;66602;48.922;2.414;2023-03-01T10:30:50;9.70;37.22
77100;SHT31;66602;48.922;2.414;2023-03-01T10:35:47;8.50;40.08
77100;SHT31;66602;48.922;2.414;2023-03-01T10:38:15;8.94;40.07
77100;SHT31;66602;48.922;2.414;2023-03-01T10:40:57;9.97;37.76
77100;SHT31;66602;48.922;2.414;2023-03-01T10:43:30;10.49;36.59
77100;SHT31;66602;48.922;2.414;2023-03-01T10:45:57;10.97;35.75
77100;SHT31;66602;48.922;2.414;2023-03-01T10:48:25;11.09;36.20
77100;SHT31;66602;48.922;2.414;2023-03-01T10:51:15;11.09;35.09
77100;SHT31;66602;48.922;2.414;2023-03-01T10:53:47;11.38;34.33
77100;SHT31;66602;48.922;2.414;2023-03-01T10:56:14;12.30;34.27
77100;SHT31;66602;48.922;2.414;2023-03-01T10:58:58;12.73;32.08
77100;SHT31;66602;48.922;2.414;2023-03-01T11:01:32;13.38;32.90
77100;SHT31;66602;48.922;2.414;2023-03-01T11:06:40;13.97;30.30
77100;SHT31;66602;48.922;2.414;2023-03-01T11:09:26;14.64;29.31
77100;SHT31;66602;48.922;2.414;2023-03-01T11:12:00;15.74;28.16
77100;SHT31;66602;48.922;2.414;2023-03-01T11:14:35;16.52;26.78
77100;SHT31;66602;48.922;2.414;2023-03-01T11:17:04;17.12;26.90
77100;SHT31;66602;48.922;2.414;2023-03-01T11:19:31;16.94;26.38
77100;SHT31;66602;48.922;2.414;2023-03-01T11:32:47;15.82;27.36
77100;SHT31;66602;48.922;2.414;2023-03-01T11:35:18;15.58;27.31
77100;SHT31;66602;48.922;2.414;2023-03-01T11:40:57;16.25;26.99
77100;SHT31;66602;48.922;2.414;2023-03-01T11:46:45;16.56;26.16
77100;SHT31;66602;48.922;2.414;2023-03-01T11:55:17;17.82;24.68
77100;SHT31;66602;48.922;2.414;2023-03-01T11:58:00;18.71;24.03
77100;SHT31;66602;48.922;2.414;2023-03-01T12:06:24;17.89;25.06
77100;SHT31;66602;48.922;2.414;2023-03-01T12:09:20;18.31;25.07
77100;SHT31;66602;48.922;2.414;2023-03-01T12:12:07;18.34;24.10
77100;SHT31;66602;48.922;2.414;2023-03-01T12:17:48;17.89;24.02
77100;SHT31;66602;48.922;2.414;2023-03-01T12:26:06;17.53;25.40
77100;SHT31;66602;48.922;2.414;2023-03-01T12:45:41;15.46;28.49
77100;SHT31;66602;48.922;2.414;2023-03-01T12:48:24;15.85;28.34
77100;SHT31;66602;48.922;2.414;2023-03-01T12:50:54;16.16;27.15
77100;SHT31;66602;48.922;2.414;2023-03-01T12:53:26;16.84;27.40
77100;SHT31;66602;48.922;2.414;2023-03-01T12:55:56;17.40;25.91
77100;SHT31;66602;48.922;2.414;2023-03-01T13:26:03;16.28;27.04
77100;SHT31;66602;48.922;2.414;2023-03-01T13:28:36;16.34;27.36
77100;SHT31;66602;48.922;2.414;2023-03-01T13:31:06;16.42;26.77
77100;SHT31;66602;48.922;2.414;2023-03-01T13:33:42;16.32;27.28
77100;SHT31;66602;48.922;2.414;2023-03-01T13:36:09;15.64;27.89
77100;SHT31;66602;48.922;2.414;2023-03-01T13:41:58;15.61;27.97
77100;SHT31;66602;48.922;2.414;2023-03-01T13:44:36;15.75;28.36
77100;SHT31;66602;48.922;2.414;2023-03-01T13:47:17;15.51;28.27
77100;SHT31;66602;48.922;2.414;2023-03-01T13:49:58;15.84;28.05
77100;SHT31;66602;48.922;2.414;2023-03-01T13:54:59;16.19;28.08
77100;SHT31;66602;48.922;2.414;2023-03-01T13:57:33;15.43;28.19
77100;SHT31;66602;48.922;2.414;2023-03-01T14:00:00;14.44;29.81
77100;SHT31;66602;48.922;2.414;2023-03-01T14:02:35;14.25;30.37
77100;SHT31;66602;48.922;2.414;2023-03-01T14:05:01;14.24;30.25
77100;SHT31;66602;48.922;2.414;2023-03-01T14:07:28;14.21;30.98
77100;SHT31;66602;48.922;2.414;2023-03-01T14:09:59;14.61;29.62
77100;SHT31;66602;48.922;2.414;2023-03-01T14:12:55;14.40;30.09
77100;SHT31;66602;48.922;2.414;2023-03-01T14:15:27;14.31;29.91
77100;SHT31;66602;48.922;2.414;2023-03-01T14:18:18;13.90;31.11
77100;SHT31;66602;48.922;2.414;2023-03-01T14:20:47;13.46;32.42
77100;SHT31;66602;48.922;2.414;2023-03-01T14:23:20;13.62;31.77
77100;SHT31;66602;48.922;2.414;2023-03-01T14:25:49;13.43;32.07
77100;SHT31;66602;48.922;2.414;2023-03-01T14:28:24;13.31;32.15
77100;SHT31;66602;48.922;2.414;2023-03-01T14:30:57;13.32;31.88
77100;SHT31;66602;48.922;2.414;2023-03-01T14:33:31;13.63;32.96
77100;SHT31;66602;48.922;2.414;2023-03-01T14:36:03;13.84;32.24
77100;SHT31;66602;48.922;2.414;2023-03-01T14:38:38;13.62;31.82
77100;SHT31;66602;48.922;2.414;2023-03-01T14:41:26;13.72;31.65
77100;SHT31;66602;48.922;2.414;2023-03-01T14:43:57;13.89;31.35
77100;SHT31;66602;48.922;2.414;2023-03-01T14:46:38;13.74;32.19
77100;SHT31;66602;48.922;2.414;2023-03-01T14:51:38;13.86;31.34
77100;SHT31;66602;48.922;2.414;2023-03-01T14:54:20;13.31;32.62
77100;SHT31;66602;48.922;2.414;2023-03-01T14:56:48;13.65;32.23
77100;SHT31;66602;48.922;2.414;2023-03-01T14:59:13;13.62;33.06
77100;SHT31;66602;48.922;2.414;2023-03-01T15:01:41;13.46;33.51
77100;SHT31;66602;48.922;2.414;2023-03-01T15:04:11;13.36;33.48
77100;SHT31;66602;48.922;2.414;2023-03-01T15:06:37;13.18;33.45
77100;SHT31;66602;48.922;2.414;2023-03-01T15:09:15;13.49;33.03
77100;SHT31;66602;48.922;2.414;2023-03-01T15:11:42;13.28;33.44
77100;SHT31;66602;48.922;2.414;2023-03-01T15:16:55;12.70;34.21
77100;SHT31;66602;48.922;2.414;2023-03-01T15:19:23;12.28;35.19
77100;SHT31;66602;48.922;2.414;2023-03-01T15:21:55;12.34;35.89
77100;SHT31;66602;48.922;2.414;2023-03-01T15:24:25;12.01;35.75
77100;SHT31;66602;48.922;2.414;2023-03-01T15:27:14;11.57;36.29
77100;SHT31;66602;48.922;2.414;2023-03-01T15:29:54;11.33;36.49
77100;SHT31;66602;48.922;2.414;2023-03-01T15:32:33;11.41;37.24
77100;SHT31;66602;48.922;2.414;2023-03-01T15:38:00;11.30;36.74
77100;SHT31;66602;48.922;2.414;2023-03-01T15:40:30;10.95;37.27
77100;SHT31;66602;48.922;2.414;2023-03-01T15:43:04;10.25;39.37
77100;SHT31;66602;48.922;2.414;2023-03-01T15:45:33;9.45;41.03
77100;SHT31;66602;48.922;2.414;2023-03-01T15:48:19;8.94;41.92
77100;SHT31;66602;48.922;2.414;2023-03-01T15:50:54;8.66;42.89
77100;SHT31;66602;48.922;2.414;2023-03-01T15:53:20;8.57;43.27
77100;SHT31;66602;48.922;2.414;2023-03-01T15:55:46;8.47;43.27
77100;SHT31;66602;48.922;2.414;2023-03-01T15:58:20;8.50;43.52
77100;SHT31;66602;48.922;2.414;2023-03-01T16:00:47;8.53;43.12
77100;SHT31;66602;48.922;2.414;2023-03-01T16:03:14;8.53;43.25
77100;SHT31;66602;48.922;2.414;2023-03-01T16:05:47;8.52;43.31
77100;SHT31;66602;48.922;2.414;2023-03-01T16:08:15;8.43;43.11
77100;SHT31;66602;48.922;2.414;2023-03-01T16:10:42;8.21;44.13
77100;SHT31;66602;48.922;2.414;2023-03-01T16:13:13;8.06;44.02
77100;SHT31;66602;48.922;2.414;2023-03-01T16:15:41;7.78;44.72
77100;SHT31;66602;48.922;2.414;2023-03-01T16:18:08;7.44;45.49
77100;SHT31;66602;48.922;2.414;2023-03-01T16:20:36;7.17;46.55
77100;SHT31;66602;48.922;2.414;2023-03-01T16:23:06;6.96;46.76
77100;SHT31;66602;48.922;2.414;2023-03-01T16:25:43;6.93;47.68
77100;SHT31;66602;48.922;2.414;2023-03-01T16:28:08;6.91;47.77
77100;SHT31;66602;48.922;2.414;2023-03-01T16:30:36;6.79;47.32
77100;SHT31;66602;48.922;2.414;2023-03-01T16:33:02;6.84;48.41
77100;SHT31;66602;48.922;2.414;2023-03-01T16:35:32;6.78;47.71
77100;SHT31;66602;48.922;2.414;2023-03-01T16:37:59;6.72;48.44
77100;SHT31;66602;48.922;2.414;2023-03-01T16:40:27;6.76;48.07
77100;SHT31;66602;48.922;2.414;2023-03-01T16:42:56;6.63;48.10
77100;SHT31;66602;48.922;2.414;2023-03-01T16:45:24;6.42;48.49
77100;SHT31;66602;48.922;2.414;2023-03-01T16:47:51;6.21;49.52
77100;SHT31;66602;48.922;2.414;2023-03-01T16:50:19;5.96;49.81
77100;SHT31;66602;48.922;2.414;2023-03-01T16:52:48;5.86;50.05
77100;SHT31;66602;48.922;2.414;2023-03-01T16:55:35;5.66;50.73
77100;SHT31;66602;48.922;2.414;2023-03-01T16:58:01;5.59;51.31
77100;SHT31;66602;48.922;2.414;2023-03-01T17:00:28;5.45;51.51
77100;SHT31;66602;48.922;2.414;2023-03-01T17:02:54;5.28;52.36
77100;SHT31;66602;48.922;2.414;2023-03-01T17:05:20;5.11;52.22
77100;SHT31;66602;48.922;2.414;2023-03-01T17:07:50;5.00;52.65
77100;SHT31;66602;48.922;2.414;2023-03-01T17:10:25;4.96;52.27
77100;SHT31;66602;48.922;2.414;2023-03-01T17:12:52;4.91;52.50
77100;SHT31;66602;48.922;2.414;2023-03-01T17:15:25;4.96;52.12
77100;SHT31;66602;48.922;2.414;2023-03-01T17:18:08;4.88;52.51
77100;SHT31;66602;48.922;2.414;2023-03-01T17:20:35;4.73;53.07
77100;SHT31;66602;48.922;2.414;2023-03-01T17:23:08;4.66;53.72
77100;SHT31;66602;48.922;2.414;2023-03-01T17:25:40;4.48;54.11
77100;SHT31;66602;48.922;2.414;2023-03-01T17:28:07;4.48;53.85
77100;SHT31;66602;48.922;2.414;2023-03-01T17:30:37;4.45;54.03
77100;SHT31;66602;48.922;2.414;2023-03-01T17:33:18;4.35;54.33
77100;SHT31;66602;48.922;2.414;2023-03-01T17:35:49;4.22;54.88
77100;SHT31;66602;48.922;2.414;2023-03-01T17:38:18;4.22;55.00
77100;SHT31;66602;48.922;2.414;2023-03-01T17:40:44;4.18;54.80
77100;SHT31;66602;48.922;2.414;2023-03-01T17:43:23;4.05;55.00
77100;SHT31;66602;48.922;2.414;2023-03-01T17:46:13;4.06;54.98
77100;SHT31;66602;48.922;2.414;2023-03-01T17:48:49;3.91;55.40
77100;SHT31;66602;48.922;2.414;2023-03-01T17:52:00;3.69;55.39